ADDS METAR Data INFO
IDs: Format: Raw Decoded Include TAF

Data at: 1902 UTC 23 Apr 2018

KFME 231836Z AUTO 11010G15KT 10SM CLR 20/06 A3042 RMK AO1
KFME 231815Z AUTO 14011G16KT 10SM CLR 19/06 A3043 RMK AO1
KFME 231757Z AUTO 13011G14KT 10SM CLR 20/05 A3044 RMK AO1
KFME 231736Z AUTO 15009G16KT 10SM CLR 19/04 A3043 RMK AO1
KFME 231715Z AUTO 16012KT 10SM CLR 20/04 A3044 RMK AO1
KFME 231657Z AUTO 13007G14KT 110V170 10SM CLR 18/04 A3043 RMK AO1
KFME 231636Z AUTO 10008G14KT 10SM CLR 19/05 A3044 RMK AO1
KFME 231615Z AUTO 14008KT 120V190 10SM CLR 18/05 A3045 RMK AO1
KFME 231557Z AUTO 12009KT 10SM CLR 18/05 A3045 RMK AO1
KFME 231536Z AUTO 13008KT 10SM CLR 17/06 A3045 RMK AO1
KFME 231515Z AUTO 14006KT 10SM CLR 17/06 A3045 RMK AO1
KFME 231457Z AUTO 14004KT 10SM CLR 16/06 A3045 RMK AO1
KFME 231436Z AUTO 16007KT 10SM CLR 16/07 A3045 RMK AO1
KFME 231415Z AUTO 12004KT 10SM CLR 15/06 A3046 RMK AO1
KFME 231357Z AUTO 09004KT 10SM CLR 14/06 A3046 RMK AO1
KFME 231336Z AUTO 09005KT 10SM CLR 13/06 A3046 RMK AO1
KFME 231315Z AUTO 00000KT 10SM CLR 13/05 A3046 RMK AO1
KFME 231257Z AUTO 16003KT 10SM CLR 12/04 A3047 RMK AO1
KFME 231236Z AUTO 00000KT 10SM CLR 12/05 A3046 RMK AO1
KFME 231215Z AUTO 12003KT 10SM CLR 12/05 A3046 RMK AO1
KFME 231157Z AUTO 14004KT 10SM CLR 11/05 A3046 RMK AO1
KFME 231136Z AUTO 00000KT 10SM CLR 10/06 A3046 RMK AO1
KFME 231115Z AUTO 00000KT 10SM CLR 08/05 A3046 RMK AO1
KFME 231057Z AUTO 00000KT 10SM SCT070 SCT080 07/04 A3045 RMK AO1
KFME 231036Z AUTO 00000KT 10SM BKN070 06/03 A3044 RMK AO1
KFME 231015Z AUTO 00000KT 10SM BKN070 BKN080 06/04 A3043 RMK AO1
KFME 230957Z AUTO 00000KT 10SM OVC070 07/04 A3043 RMK AO1
KFME 230936Z AUTO 00000KT 10SM BKN075 OVC080 07/04 A3043 RMK AO1
KFME 230915Z AUTO 00000KT 10SM SCT075 07/04 A3043 RMK AO1
KFME 230857Z AUTO 00000KT 10SM SCT075 07/04 A3042 RMK AO1
KFME 230836Z AUTO 00000KT 10SM BKN065 08/04 A3043 RMK AO1
KFME 230815Z AUTO 00000KT 10SM OVC065 08/04 A3043 RMK AO1
KFME 230757Z AUTO 00000KT 10SM OVC065 08/04 A3042 RMK AO1
KFME 230736Z AUTO 00000KT 10SM OVC065 08/03 A3042 RMK AO1
KFME 230715Z AUTO 00000KT 10SM BKN065 OVC085 08/04 A3042 RMK AO1
KFME 230657Z AUTO 00000KT 10SM BKN065 OVC075 10/03 A3042 RMK AO1
KFME 230636Z AUTO 00000KT 10SM BKN065 09/04 A3043 RMK AO1
KFME 230615Z AUTO 00000KT 10SM OVC075 10/03 A3043 RMK AO1
KFME 230557Z AUTO 00000KT 10SM BKN060 OVC080 10/03 A3043 RMK AO1
KFME 230536Z AUTO 00000KT 10SM OVC060 10/03 A3044 RMK AO1
KFME 230515Z AUTO 00000KT 10SM OVC060 11/03 A3044 RMK AO1
KFME 230457Z AUTO 20003KT 10SM OVC060 11/03 A3044 RMK AO1
KFME 230436Z AUTO 00000KT 10SM BKN060 OVC095 10/03 A3043 RMK AO1
KFME 230415Z AUTO 00000KT 10SM OVC060 11/02 A3043 RMK AO1
KFME 230357Z AUTO 00000KT 10SM OVC060 11/02 A3043 RMK AO1
KFME 230336Z AUTO 00000KT 10SM OVC060 11/02 A3043 RMK AO1
KFME 230315Z AUTO 00000KT 10SM OVC070 11/02 A3042 RMK AO1
KFME 230257Z AUTO 00000KT 10SM BKN065 11/02 A3042 RMK AO1
KFME 230236Z AUTO 15005KT 10SM BKN065 11/02 A3042 RMK AO1
KFME 230215Z AUTO 16005KT 10SM SCT065 10/02 A3042 RMK AO1
KFME 230157Z AUTO 11005KT 10SM CLR 11/02 A3042 RMK AO1
KFME 230136Z AUTO 11005KT 10SM CLR 10/02 A3041 RMK AO1
KFME 230115Z AUTO 09006KT 10SM CLR 10/02 A3040 RMK AO1
KFME 230057Z AUTO 13003KT 10SM CLR 10/00 A3039 RMK AO1
KFME 230036Z AUTO 00000KT 10SM CLR 10/01 A3038 RMK AO1
KFME 230015Z AUTO 14003KT 10SM CLR 12/01 A3037 RMK AO1
KFME 222357Z AUTO 13004KT 10SM CLR 13/01 A3037 RMK AO1
KFME 222336Z AUTO 11003KT 10SM CLR 15/01 A3036 RMK AO1
KFME 222315Z AUTO 14004KT 10SM CLR 15/00 A3036 RMK AO1
KFME 222257Z AUTO 14006KT 10SM CLR 16/00 A3036 RMK AO1
KFME 222236Z AUTO 13009KT 10SM CLR 16/00 A3036 RMK AO1
KFME 222215Z AUTO 13008KT 10SM CLR 16/00 A3036 RMK AO1
KFME 222157Z AUTO 13009KT 10SM CLR 17/00 A3036 RMK AO1
KFME 222136Z AUTO 13010KT 10SM CLR 17/01 A3036 RMK AO1
KFME 222115Z AUTO 12009G15KT 10SM CLR 17/03 A3036 RMK AO1
KFME 222057Z AUTO 13011KT 10SM SCT060 17/03 A3036 RMK AO1
KFME 222036Z AUTO 10011KT 10SM SCT060 17/03 A3036 RMK AO1
KFME 222015Z AUTO 10006G17KT 10SM SCT060 17/03 A3036 RMK AO1
KFME 221957Z AUTO 13008KT 10SM SCT060 18/02 A3037 RMK AO1
KFME 221936Z AUTO 11011KT 10SM CLR 18/02 A3037 RMK AO1
KFME 221915Z AUTO 16006G09KT 10SM CLR 18/02 A3037 RMK AO1
KFME 221857Z AUTO 11011G16KT 10SM CLR 17/02 A3038 RMK AO1
KFME 221836Z AUTO 12009G16KT 10SM CLR 18/02 A3038 RMK AO1
KFME 221815Z AUTO 14004KT 10SM CLR 17/01 A3039 RMK AO1
KFME 221757Z AUTO 07007KT 10SM CLR 17/01 A3039 RMK AO1
KFME 221736Z AUTO 12011KT 070V130 10SM CLR 17/01 A3040 RMK AO1
KFME 221715Z AUTO 10007KT 060V130 10SM CLR 16/01 A3040 RMK AO1
KFME 221657Z AUTO 08008G15KT 10SM CLR 16/02 A3041 RMK AO1
KFME 221636Z AUTO 09011KT 10SM CLR 16/02 A3041 RMK AO1
KFME 221615Z AUTO 11008G14KT 10SM CLR 16/02 A3042 RMK AO1
KFME 221557Z AUTO 11006G09KT 10SM CLR 16/02 A3042 RMK AO1
KFME 221536Z AUTO 09008KT 10SM CLR 15/03 A3042 RMK AO1
KFME 221515Z AUTO 08008KT 10SM CLR 15/02 A3043 RMK AO1
KFME 221457Z AUTO 10008G16KT 10SM CLR 15/02 A3043 RMK AO1
KFME 221436Z AUTO 04004KT 10SM CLR 15/03 A3043 RMK AO1
KFME 221415Z AUTO 08007KT 10SM CLR 14/04 A3043 RMK AO1
KFME 221357Z AUTO 10005KT 10SM CLR 13/05 A3044 RMK AO1
KFME 221336Z AUTO 08004KT 10SM CLR 12/05 A3044 RMK AO1
KFME 221315Z AUTO 12005KT 10SM SCT110 12/05 A3045 RMK AO1
KFME 221257Z AUTO 12003KT 10SM SCT120 11/05 A3045 RMK AO1
KFME 221236Z AUTO 11004KT 10SM CLR 10/05 A3044 RMK AO1
KFME 221215Z AUTO 10003KT 10SM SCT120 09/04 A3044 RMK AO1
KFME 221157Z AUTO 10003KT 10SM BKN120 07/04 A3044 RMK AO1
KFME 221136Z AUTO 00000KT 10SM BKN120 06/03 A3044 RMK AO1
KFME 221115Z AUTO 00000KT 10SM OVC120 06/03 A3044 RMK AO1
KFME 221057Z AUTO 00000KT 10SM SCT120 05/02 A3044 RMK AO1
KFME 221036Z AUTO 00000KT 10SM CLR 05/02 A3043 RMK AO1
KFME 221015Z AUTO 00000KT 10SM CLR 04/02 A3042 RMK AO1
KFME 220957Z AUTO 04006KT 10SM CLR 03/02 A3042 RMK AO1
KFME 220936Z AUTO 00000KT 10SM CLR 04/02 A3041 RMK AO1
KFME 220915Z AUTO 00000KT 10SM CLR 04/02 A3041 RMK AO1
KFME 220857Z AUTO 00000KT 10SM CLR 05/02 A3041 RMK AO1
KFME 220836Z AUTO 00000KT 10SM SCT120 05/02 A3041 RMK AO1
KFME 220815Z AUTO 00000KT 10SM OVC120 06/03 A3041 RMK AO1
KFME 220757Z AUTO 00000KT 10SM BKN120 06/02 A3040 RMK AO1
KFME 220736Z AUTO 00000KT 10SM SCT120 06/03 A3040 RMK AO1
KFME 220715Z AUTO 00000KT 10SM CLR 05/02 A3040 RMK AO1